Terminal Aerodrome Forecast
Issued by NWS Cleveland, OH

Home | Current Version | Previous Version | Graphics & Text | Print | Product List | Glossary On
Versions: 1 2 3 4 5 6 7 8 9 10 11 12 13 14 15 16 17 18 19 20 21 22
054
FTUS41 KCLE 152333
TAFTOL
TAF
KTOL 152333Z 1600/1624 25012KT P6SM OVC035
      TEMPO 1606/1609 -SHSN OVC025
     FM161200 23008KT P6SM BKN050
     FM162000 23004KT P6SM BKN100=

USA.gov is the U.S. government's official web portal to all federal, state and local government web resources and services.